sensor_id;sensor_type;location;lat;lon;timestamp;P1;P2;P0
49570;PMS7003;36970;39.352;20.286;2022-07-04T00:16:54;10.33;10.33;9.00
49570;PMS7003;36970;39.352;20.286;2022-07-04T00:46:57;13.33;13.33;11.33
49570;PMS7003;36970;39.352;20.286;2022-07-04T01:17:02;14.00;14.00;11.00
49570;PMS7003;36970;39.352;20.286;2022-07-04T01:47:04;17.00;16.00;12.33
49570;PMS7003;36970;39.352;20.286;2022-07-04T02:17:07;16.33;14.67;11.67
49570;PMS7003;36970;39.352;20.286;2022-07-04T02:47:09;14.67;14.67;11.67
49570;PMS7003;36970;39.352;20.286;2022-07-04T03:17:12;16.67;16.67;13.00
49570;PMS7003;36970;39.352;20.286;2022-07-04T03:47:14;17.00;17.00;13.00
49570;PMS7003;36970;39.352;20.286;2022-07-04T04:17:16;16.33;16.00;13.00
49570;PMS7003;36970;39.352;20.286;2022-07-04T04:47:19;18.67;16.33;13.00
49570;PMS7003;36970;39.352;20.286;2022-07-04T05:17:21;16.67;16.67;13.33
49570;PMS7003;36970;39.352;20.286;2022-07-04T05:47:24;18.33;16.00;14.00
49570;PMS7003;36970;39.352;20.286;2022-07-04T06:17:26;16.00;16.00;12.33
49570;PMS7003;36970;39.352;20.286;2022-07-04T06:47:28;19.67;19.00;16.00
49570;PMS7003;36970;39.352;20.286;2022-07-04T07:17:31;18.00;16.67;13.67
49570;PMS7003;36970;39.352;20.286;2022-07-04T07:47:33;19.33;16.33;14.33
49570;PMS7003;36970;39.352;20.286;2022-07-04T08:17:37;22.00;22.00;18.00
49570;PMS7003;36970;39.352;20.286;2022-07-04T08:47:39;24.00;24.00;17.00
49570;PMS7003;36970;39.352;20.286;2022-07-04T09:17:44;25.67;25.33;17.33
49570;PMS7003;36970;39.352;20.286;2022-07-04T09:47:47;22.33;22.33;15.33
49570;PMS7003;36970;39.352;20.286;2022-07-04T10:17:50;24.00;21.33;15.00
49570;PMS7003;36970;39.352;20.286;2022-07-04T10:47:55;19.67;19.67;16.00
49570;PMS7003;36970;39.352;20.286;2022-07-04T11:17:58;19.33;18.00;14.00
49570;PMS7003;36970;39.352;20.286;2022-07-04T11:48:02;16.33;16.33;11.67
49570;PMS7003;36970;39.352;20.286;2022-07-04T12:18:05;13.33;12.67;9.67
49570;PMS7003;36970;39.352;20.286;2022-07-04T12:48:21;16.00;15.33;10.00
49570;PMS7003;36970;39.352;20.286;2022-07-04T13:18:25;14.00;14.00;9.00
49570;PMS7003;36970;39.352;20.286;2022-07-04T13:48:28;17.33;17.33;12.33
49570;PMS7003;36970;39.352;20.286;2022-07-04T14:18:30;17.67;17.67;13.33
49570;PMS7003;36970;39.352;20.286;2022-07-04T14:48:32;16.00;16.00;11.00
49570;PMS7003;36970;39.352;20.286;2022-07-04T15:18:35;22.67;19.33;13.33
49570;PMS7003;36970;39.352;20.286;2022-07-04T15:48:38;16.00;15.00;10.33
49570;PMS7003;36970;39.352;20.286;2022-07-04T16:18:56;15.67;15.00;11.67
49570;PMS7003;36970;39.352;20.286;2022-07-04T16:49:13;15.00;14.00;11.00
49570;PMS7003;36970;39.352;20.286;2022-07-04T17:19:30;20.67;19.00;15.00
49570;PMS7003;36970;39.352;20.286;2022-07-04T17:49:48;23.67;23.67;17.67
49570;PMS7003;36970;39.352;20.286;2022-07-04T18:20:06;23.00;23.00;18.33
49570;PMS7003;36970;39.352;20.286;2022-07-04T18:50:24;28.33;26.67;18.33
49570;PMS7003;36970;39.352;20.286;2022-07-04T19:20:41;24.67;22.33;17.33
49570;PMS7003;36970;39.352;20.286;2022-07-04T19:50:59;24.00;23.33;16.67
49570;PMS7003;36970;39.352;20.286;2022-07-04T20:21:16;25.67;25.00;17.00
49570;PMS7003;36970;39.352;20.286;2022-07-04T20:51:34;25.00;22.67;16.33
49570;PMS7003;36970;39.352;20.286;2022-07-04T21:21:51;20.00;19.67;16.00
49570;PMS7003;36970;39.352;20.286;2022-07-04T21:52:08;21.67;21.00;16.67
49570;PMS7003;36970;39.352;20.286;2022-07-04T22:22:28;19.00;19.00;15.67
49570;PMS7003;36970;39.352;20.286;2022-07-04T22:52:48;22.00;21.00;15.67
49570;PMS7003;36970;39.352;20.286;2022-07-04T23:23:05;21.67;20.00;16.33
49570;PMS7003;36970;39.352;20.286;2022-07-04T23:53:23;18.67;18.67;15.00
